Time;durP1;ratioP1;P1;durP2;ratioP2;P2;SDS_P1;SDS_P2;PMS_P1;PMS_P2;Temp;Humidity;BMP_temperature;BMP_pressure;BME280_temperature;BME280_humidity;BME280_pressure;Samples;Min_cycle;Max_cycle;Signal;HPM_P1;HPM_P2
2021/01/23 00:03:38;;;;;;;1999.90;999.90;;;;;;;5.25;67.97;99313.44;15728472;28;20485;-60
2021/01/23 00:11:10;;;;;;;1999.90;999.90;;;;;;;5.00;69.98;99297.75;15746171;28;20067;-61
2021/01/23 00:18:42;;;;;;;1999.90;999.90;;;;;;;5.23;68.53;99315.75;15745484;28;20466;-59
2021/01/23 00:26:14;;;;;;;1999.90;999.90;;;;;;;5.33;67.74;99292.44;15744997;28;20040;-59
2021/01/23 00:33:46;;;;;;;1999.90;999.90;;;;;;;5.17;68.78;99258.97;15744259;28;20124;-60
2021/01/23 00:41:18;;;;;;;1999.90;999.90;;;;;;;5.37;68.57;99272.06;15725435;28;20047;-61
2021/01/23 00:48:50;;;;;;;1999.90;999.90;;;;;;;5.47;68.04;99301.31;15723920;28;20158;-61
2021/01/23 00:56:23;;;;;;;1999.90;999.90;;;;;;;5.71;68.10;99290.41;15724498;28;20051;-60
2021/01/23 01:03:54;;;;;;;1999.90;999.90;;;;;;;5.76;66.95;99303.28;15743365;28;20045;-61
2021/01/23 01:11:27;;;;;;;1999.90;999.90;;;;;;;5.74;67.86;99294.50;15741462;28;20442;-59
2021/01/23 01:18:58;;;;;;;1999.90;999.90;;;;;;;5.67;68.21;99306.09;15723220;28;20041;-61
2021/01/23 01:26:31;;;;;;;1999.90;999.90;;;;;;;5.65;67.41;99279.91;15723771;28;20048;-61
2021/01/23 01:34:03;;;;;;;1999.90;999.90;;;;;;;5.65;67.21;99288.19;15740977;28;20131;-61
2021/01/23 01:41:37;;;;;;;1999.90;999.90;;;;;;;5.72;67.71;99294.81;15740307;28;20062;-61
2021/01/23 01:49:09;;;;;;;1999.90;999.90;;;;;;;5.10;68.93;99292.66;15721710;28;20124;-61
2021/01/23 01:56:42;;;;;;;1999.90;999.90;;;;;;;5.37;68.69;99288.66;15721330;28;20122;-61
2021/01/23 02:04:28;;;;;;;1999.90;999.90;;;;;;;5.43;68.41;99286.53;15738845;28;20048;-59
2021/01/23 02:12:09;;;;;;;1999.90;999.90;;;;;;;5.64;67.66;99281.03;15720168;28;20405;-61
2021/01/23 02:20:04;;;;;;;1999.90;999.90;;;;;;;5.69;67.95;99283.59;15737596;28;20036;-60
2021/01/23 02:27:49;;;;;;;1999.90;999.90;;;;;;;5.39;69.18;99278.06;15737362;28;20406;-61
2021/01/23 02:35:24;;;;;;;1999.90;999.90;;;;;;;5.14;70.03;99273.47;15719465;28;20044;-60
2021/01/23 02:42:55;;;;;;;1999.90;999.90;;;;;;;5.47;68.74;99277.22;15718718;28;20135;-61
2021/01/23 02:50:28;;;;;;;1999.90;999.90;;;;;;;5.67;68.14;99280.38;15701656;28;20465;-59
2021/01/23 02:58:03;;;;;;;1999.90;999.90;;;;;;;4.99;70.29;99269.28;15715155;28;20147;-60
2021/01/23 03:05:37;;;;;;;1999.90;999.90;;;;;;;4.76;71.63;99267.91;15736111;28;20040;-61
2021/01/23 03:13:09;;;;;;;1999.90;999.90;;;;;;;5.45;68.56;99273.16;15735103;28;20075;-60
2021/01/23 03:20:43;;;;;;;1999.90;999.90;;;;;;;5.65;68.29;99271.59;15745025;28;20044;-60
2021/01/23 03:28:15;;;;;;;1999.90;999.90;;;;;;;5.34;69.21;99275.50;15747210;28;20496;-61
2021/01/23 03:35:47;;;;;;;1999.90;999.90;;;;;;;5.65;67.86;99271.59;15747841;28;20528;-61
2021/01/23 03:43:19;;;;;;;1999.90;999.90;;;;;;;5.56;68.47;99271.63;15728201;28;20549;-61
2021/01/23 03:50:51;;;;;;;1999.90;999.90;;;;;;;5.58;68.45;99257.47;15728956;28;20401;-61
2021/01/23 03:58:23;;;;;;;1999.90;999.90;;;;;;;5.61;67.80;99267.84;15710936;28;20045;-61
2021/01/23 04:05:56;;;;;;;1999.90;999.90;;;;;;;5.57;68.60;99264.16;15744969;28;20052;-61
2021/01/23 04:13:27;;;;;;;1999.90;999.90;;;;;;;5.55;68.81;99267.25;15743744;28;20391;-61
2021/01/23 04:21:00;;;;;;;1999.90;999.90;;;;;;;5.69;67.98;99286.38;15744160;28;20119;-56
2021/01/23 04:28:31;;;;;;;1999.90;999.90;;;;;;;5.48;68.42;99275.25;15745112;28;20485;-55
2021/01/23 04:36:06;;;;;;;1999.90;999.90;;;;;;;5.60;68.04;99263.47;15744901;28;20501;-56
2021/01/23 04:43:38;;;;;;;1999.90;999.90;;;;;;;5.64;67.38;99273.56;15725935;28;20132;-54
2021/01/23 04:51:11;;;;;;;1999.90;999.90;;;;;;;5.63;67.36;99269.16;15710877;28;20345;-57
2021/01/23 04:58:43;;;;;;;1999.90;999.90;;;;;;;5.46;67.88;99272.03;15724735;28;20079;-59
2021/01/23 05:06:16;;;;;;;1999.90;999.90;;;;;;;5.48;68.90;99267.78;15741591;28;20048;-54
2021/01/23 05:14:10;;;;;;;1999.90;999.90;;;;;;;5.65;67.62;99253.03;15706864;28;20051;-59
2021/01/23 05:22:00;;;;;;;1999.90;999.90;;;;;;;5.42;68.13;99238.69;15741353;28;20040;-58
2021/01/23 05:29:32;;;;;;;1999.90;999.90;;;;;;;5.41;69.06;99231.50;15740777;28;20045;-59
2021/01/23 05:37:04;;;;;;;1999.90;999.90;;;;;;;5.50;68.25;99237.81;15739596;28;20066;-57
2021/01/23 05:44:36;;;;;;;1999.90;999.90;;;;;;;5.58;67.73;99225.06;15738138;28;20060;-57
2021/01/23 05:52:08;;;;;;;1999.90;999.90;;;;;;;5.54;68.79;99229.66;15703457;28;20529;-56
2021/01/23 05:59:41;;;;;;;1999.90;999.90;;;;;;;5.61;67.65;99237.41;15651036;28;20155;-55
2021/01/23 06:07:52;;;;;;;1999.90;999.90;;;;;;;5.75;67.38;99236.03;15681007;28;20112;-56
2021/01/23 06:15:35;;;;;;;1999.90;999.90;;;;;;;5.73;67.96;99235.56;15737045;28;20056;-57
2021/01/23 06:23:08;;;;;;;1999.90;999.90;;;;;;;5.83;67.50;99248.16;15736774;28;20145;-56
2021/01/23 06:30:39;;;;;;;1999.90;999.90;;;;;;;5.78;67.78;99259.44;15717669;28;20072;-57
2021/01/23 06:38:15;;;;;;;1999.90;999.90;;;;;;;5.86;67.90;99266.09;15734499;28;20099;-59
2021/01/23 06:45:46;;;;;;;1999.90;999.90;;;;;;;5.86;67.46;99282.69;15735242;28;20048;-58
2021/01/23 06:53:23;;;;;;;1999.90;999.90;;;;;;;5.92;67.67;99295.19;15716143;28;20049;-60
2021/01/23 07:00:56;;;;;;;1999.90;999.90;;;;;;;5.74;68.25;99303.59;15734971;28;20366;-58
2021/01/23 07:08:30;;;;;;;;;;;;;;;5.80;68.96;99310.56;15734260;28;20052;-57
2021/01/23 07:16:02;;;;;;;1999.90;999.90;;;;;;;5.67;69.75;99308.84;15734987;28;19939;-58
2021/01/23 07:23:35;;;;;;;1999.90;999.90;;;;;;;5.74;70.04;99306.38;15716072;28;20182;-60
2021/01/23 07:31:17;;;;;;;1999.90;999.90;;;;;;;5.85;70.24;99308.75;15733837;28;20056;-56
2021/01/23 07:38:51;;;;;;;1999.90;999.90;;;;;;;5.67;70.91;99313.56;15733569;28;20439;-56
2021/01/23 07:46:22;;;;;;;1999.90;999.90;;;;;;;5.78;70.11;99315.63;15733411;28;20076;-57
2021/01/23 07:54:14;;;;;;;1999.90;999.90;;;;;;;5.84;71.54;99323.75;15732508;28;20056;-53
2021/01/23 08:01:45;;;;;;;1999.90;999.90;;;;;;;6.01;70.60;99320.88;15724205;28;20044;-57
2021/01/23 08:09:19;;;;;;;1999.90;999.90;;;;;;;5.84;71.50;99307.94;15743738;28;20056;-53
2021/01/23 08:16:51;;;;;;;1999.90;999.90;;;;;;;5.88;71.41;99308.88;15744036;28;20355;-55
2021/01/23 08:24:31;;;;;;;1999.90;999.90;;;;;;;6.06;70.50;99302.13;15744212;28;20036;-57
2021/01/23 08:32:07;;;;;;;1999.90;999.90;;;;;;;5.96;70.08;99290.63;15724612;28;20496;-54
2021/01/23 08:39:45;;;;;;;1999.90;999.90;;;;;;;5.65;71.48;99288.19;15729335;28;20386;-56
2021/01/23 08:47:17;;;;;;;1999.90;999.90;;;;;;;5.44;70.70;99288.16;15743205;28;20056;-53
2021/01/23 08:54:50;;;;;;;1999.90;999.90;;;;;;;5.36;71.35;99286.22;15741806;28;20051;-59
2021/01/23 09:02:22;;;;;;;1999.90;999.90;;;;;;;5.19;70.38;99300.94;15741069;28;20272;-58
2021/01/23 09:09:54;;;;;;;1999.90;999.90;;;;;;;5.30;70.28;99276.50;15742107;28;20123;-55
2021/01/23 09:17:26;;;;;;;1999.90;999.90;;;;;;;5.15;71.27;99264.03;15739905;28;20044;-54
2021/01/23 09:24:59;;;;;;;1999.90;999.90;;;;;;;5.19;71.46;99263.03;15740684;28;20114;-56
2021/01/23 09:32:31;;;;;;;1999.90;999.90;;;;;;;5.12;71.56;99261.94;15742387;28;20166;-53
2021/01/23 09:40:06;;;;;;;1999.90;999.90;;;;;;;5.02;71.91;99267.84;15722747;28;20107;-59
2021/01/23 09:47:37;;;;;;;1999.90;999.90;;;;;;;5.15;71.86;99270.38;15739110;28;20045;-58
2021/01/23 09:55:11;;;;;;;1999.90;999.90;;;;;;;5.11;71.93;99263.91;15739185;28;20143;-59
2021/01/23 10:02:43;;;;;;;1999.90;999.90;;;;;;;5.10;72.64;99264.22;15639941;28;20556;-56
2021/01/23 10:10:15;;;;;;;1999.90;999.90;;;;;;;5.04;73.78;99252.53;15740041;28;20098;-58
2021/01/23 10:17:47;;;;;;;1999.90;999.90;;;;;;;5.07;73.10;99246.34;15738768;28;20472;-57
2021/01/23 10:25:21;;;;;;;1999.90;999.90;;;;;;;5.35;72.87;99241.16;15738342;22;20050;-62
2021/01/23 10:32:53;;;;;;;1999.90;999.90;;;;;;;5.03;73.32;99234.34;15731588;28;20045;-65
2021/01/23 10:40:25;;;;;;;1999.90;999.90;;;;;;;5.27;72.98;99243.97;15743523;28;20554;-63
2021/01/23 10:47:57;;;;;;;1999.90;999.90;;;;;;;5.36;73.04;99242.78;15742922;28;20041;-65
2021/01/23 10:55:29;;;;;;;1999.90;999.90;;;;;;;5.44;72.51;99241.13;15744925;28;20520;-65
2021/01/23 11:03:01;;;;;;;1999.90;999.90;;;;;;;5.23;74.18;99241.06;15724359;28;20044;-63
2021/01/23 11:10:35;;;;;;;1999.90;999.90;;;;;;;5.40;73.22;99229.09;15741952;28;20532;-63
2021/01/23 11:18:06;;;;;;;;;;;;;;;5.54;73.29;99226.09;15741112;28;20382;-63
2021/01/23 11:25:39;;;;;;;1999.90;999.90;;;;;;;5.27;73.64;99211.59;15762509;28;19920;-63
2021/01/23 11:33:11;;;;;;;1999.90;999.90;;;;;;;5.72;72.89;99202.66;15722996;28;20060;-64
2021/01/23 11:40:44;;;;;;;1999.90;999.90;;;;;;;5.84;72.36;99186.16;15753765;28;20048;-55
2021/01/23 11:48:16;;;;;;;1999.90;999.90;;;;;;;5.88;72.44;99189.03;15757798;28;20097;-59
2021/01/23 11:55:53;;;;;;;1999.90;999.90;;;;;;;6.15;72.25;99176.59;15786737;28;20084;-64
2021/01/23 12:03:25;;;;;;;1999.90;999.90;;;;;;;6.52;71.36;99186.63;15760543;28;20045;-64
2021/01/23 12:10:59;;;;;;;1999.90;999.90;;;;;;;6.39;71.34;99185.00;15737670;28;20434;-64
2021/01/23 12:18:30;;;;;;;1999.90;999.90;;;;;;;6.39;71.87;99175.88;15777654;28;20416;-64
2021/01/23 12:26:03;;;;;;;1999.90;999.90;;;;;;;6.16;73.03;99181.00;15757419;28;20112;-64
2021/01/23 12:33:35;;;;;;;1999.90;999.90;;;;;;;5.97;73.89;99175.97;15686950;28;20049;-63
2021/01/23 12:41:07;;;;;;;1999.90;999.90;;;;;;;6.23;73.08;99189.56;15693887;28;20040;-64
2021/01/23 12:48:39;;;;;;;1999.90;999.90;;;;;;;6.23;72.85;99182.06;15750767;28;20051;-63
2021/01/23 12:56:11;;;;;;;1999.90;999.90;;;;;;;6.33;72.38;99187.16;15748949;28;20091;-65
2021/01/23 13:03:43;;;;;;;1999.90;999.90;;;;;;;6.45;72.55;99180.84;15740474;28;20040;-64
2021/01/23 13:11:15;;;;;;;1999.90;999.90;;;;;;;6.56;71.94;99179.25;15746051;28;20409;-62
2021/01/23 13:18:48;;;;;;;1999.90;999.90;;;;;;;6.58;71.79;99170.63;15754375;28;20047;-63
2021/01/23 13:26:20;;;;;;;1999.90;999.90;;;;;;;6.72;71.26;99161.97;15784990;28;20485;-61
2021/01/23 13:33:53;;;;;;;1999.90;999.90;;;;;;;6.87;71.38;99161.25;15755496;28;20039;-61
2021/01/23 13:41:26;;;;;;;1999.90;999.90;;;;;;;6.56;71.60;99182.00;15752628;28;20056;-64
2021/01/23 13:48:57;;;;;;;1999.90;999.90;;;;;;;6.56;72.35;99189.53;15751312;28;20148;-64
2021/01/23 13:56:33;;;;;;;1999.90;999.90;;;;;;;6.29;73.34;99189.00;15753695;28;20049;-64
2021/01/23 14:04:05;;;;;;;1999.90;999.90;;;;;;;6.52;72.68;99183.06;15747280;28;20456;-63
2021/01/23 14:11:37;;;;;;;1999.90;999.90;;;;;;;6.54;72.13;99177.97;15753241;28;20067;-64
2021/01/23 14:19:09;;;;;;;1999.90;999.90;;;;;;;6.09;73.25;99173.25;15756116;28;20111;-64
2021/01/23 14:26:41;;;;;;;1999.90;999.90;;;;;;;6.69;71.73;99180.09;15753558;28;20094;-64
2021/01/23 14:34:13;;;;;;;1999.90;999.90;;;;;;;6.83;70.04;99171.44;15755283;28;20131;-64
2021/01/23 14:41:46;;;;;;;1999.90;999.90;;;;;;;6.52;71.75;99167.25;15756796;28;20036;-64
2021/01/23 14:49:18;;;;;;;1999.90;999.90;;;;;;;6.78;71.26;99171.69;15788097;28;20033;-64
2021/01/23 14:56:50;;;;;;;1999.90;999.90;;;;;;;6.37;72.75;99179.00;15791371;28;20062;-64
2021/01/23 15:04:22;;;;;;;1999.90;999.90;;;;;;;6.46;72.91;99187.19;15796704;28;20045;-65
2021/01/23 15:11:54;;;;;;;1999.90;999.90;;;;;;;6.47;72.50;99188.84;15745195;28;20445;-62
2021/01/23 15:19:26;;;;;;;1999.90;999.90;;;;;;;6.51;71.96;99190.56;15744243;28;20040;-63
2021/01/23 15:26:58;;;;;;;1999.90;999.90;;;;;;;6.40;72.84;99202.44;15741854;28;20057;-63
2021/01/23 15:34:30;;;;;;;1999.90;999.90;;;;;;;6.32;72.61;99199.41;15742273;28;20052;-64
2021/01/23 15:42:03;;;;;;;1999.90;999.90;;;;;;;6.27;73.19;99182.19;15713248;28;20124;-63
2021/01/23 15:49:35;;;;;;;1999.90;999.90;;;;;;;6.31;72.21;99189.47;15737786;28;20051;-64
2021/01/23 15:57:07;;;;;;;1999.90;999.90;;;;;;;6.31;73.42;99194.19;15772611;28;20298;-63
2021/01/23 16:04:40;;;;;;;1999.90;999.90;;;;;;;6.16;73.46;99197.63;15757887;28;20139;-66
2021/01/23 16:12:12;;;;;;;1999.90;999.90;;;;;;;6.11;73.28;99195.03;15740228;28;20412;-63
2021/01/23 16:19:44;;;;;;;1999.90;999.90;;;;;;;6.11;73.39;99198.63;15740332;28;20044;-65
2021/01/23 16:27:17;;;;;;;1999.90;999.90;;;;;;;6.03;73.46;99200.31;15748331;28;20563;-62
2021/01/23 16:34:48;;;;;;;1999.90;999.90;;;;;;;5.80;73.66;99202.59;15763584;28;20079;-63
2021/01/23 16:42:22;;;;;;;1999.90;999.90;;;;;;;5.78;74.38;99196.59;15732277;28;20047;-64
2021/01/23 16:49:53;;;;;;;1999.90;999.90;;;;;;;5.79;74.75;99205.72;15775078;28;20036;-63
2021/01/23 16:57:26;;;;;;;1999.90;999.90;;;;;;;5.82;74.51;99202.25;15755143;28;20040;-63
2021/01/23 17:04:58;;;;;;;1999.90;999.90;;;;;;;5.90;73.72;99195.88;15772219;28;20138;-63
2021/01/23 17:12:30;;;;;;;1999.90;999.90;;;;;;;5.96;73.73;99205.63;15764513;28;20036;-64
2021/01/23 17:20:05;;;;;;;1999.90;999.90;;;;;;;5.76;74.31;99201.66;15738556;28;20085;-63
2021/01/23 17:27:37;;;;;;;1999.90;999.90;;;;;;;5.69;74.39;99217.19;15792102;28;20553;-64
2021/01/23 17:35:09;;;;;;;1999.90;999.90;;;;;;;5.64;74.10;99220.16;15757243;28;20044;-65
2021/01/23 17:42:43;;;;;;;;;;;;;;;5.64;74.22;99220.97;15777917;28;20072;-65
2021/01/23 17:50:15;;;;;;;1999.90;999.90;;;;;;;5.40;74.55;99229.09;15747454;28;20363;-66
2021/01/23 17:57:48;;;;;;;1999.90;999.90;;;;;;;5.41;74.60;99230.72;15745558;28;20154;-66
2021/01/23 18:05:19;;;;;;;1999.90;999.90;;;;;;;5.33;75.14;99229.63;15745630;28;20041;-64
2021/01/23 18:12:52;;;;;;;1999.90;999.90;;;;;;;5.31;74.93;99233.84;15746364;28;20067;-65
2021/01/23 18:20:24;;;;;;;1999.90;999.90;;;;;;;5.25;73.97;99221.38;15739699;28;20497;-65
2021/01/23 18:27:56;;;;;;;1999.90;999.90;;;;;;;5.15;74.91;99219.81;15738591;28;20048;-63
2021/01/23 18:35:28;;;;;;;1999.90;999.90;;;;;;;4.99;74.73;99225.06;15751563;28;20059;-65
2021/01/23 18:43:01;;;;;;;1999.90;999.90;;;;;;;5.08;74.23;99231.38;15743635;28;20055;-65
2021/01/23 18:50:32;;;;;;;1999.90;999.90;;;;;;;5.01;74.68;99231.09;15768521;28;20040;-65
2021/01/23 18:58:05;;;;;;;1999.90;999.90;;;;;;;5.06;73.86;99230.91;15748202;28;20043;-63
2021/01/23 19:05:36;;;;;;;1999.90;999.90;;;;;;;5.02;74.14;99212.56;15749116;28;20413;-63
2021/01/23 19:13:09;;;;;;;1999.90;999.90;;;;;;;4.81;73.89;99210.53;15759404;28;20044;-63
2021/01/23 19:20:41;;;;;;;1999.90;999.90;;;;;;;4.74;74.10;99207.47;15747839;28;20040;-63
2021/01/23 19:28:13;;;;;;;1999.90;999.90;;;;;;;4.87;73.08;99200.91;15740473;28;20072;-63
2021/01/23 19:35:48;;;;;;;1999.90;999.90;;;;;;;4.80;72.17;99191.53;15742609;28;20044;-63
2021/01/23 19:43:20;;;;;;;;;;;;;;;4.70;72.29;99202.94;15739876;28;20494;-63
2021/01/23 19:50:53;;;;;;;1999.90;999.90;;;;;;;4.52;72.45;99202.19;15744095;28;19959;-64
2021/01/23 19:58:25;;;;;;;1999.90;999.90;;;;;;;4.15;73.98;99201.75;15741883;28;20559;-63
2021/01/23 20:05:57;;;;;;;1999.90;999.90;;;;;;;4.13;74.17;99206.78;15751787;28;20237;-63
2021/01/23 20:13:31;;;;;;;1999.90;999.90;;;;;;;4.16;73.91;99197.84;15751885;28;20041;-63
2021/01/23 20:21:04;;;;;;;1999.90;999.90;;;;;;;4.11;73.84;99208.25;15737028;28;20043;-62
2021/01/23 20:28:37;;;;;;;1999.90;999.90;;;;;;;4.20;72.60;99211.84;15761149;28;20041;-64
2021/01/23 20:36:09;;;;;;;1999.90;999.90;;;;;;;3.94;73.65;99201.59;15773591;28;20059;-63
2021/01/23 20:43:42;;;;;;;1999.90;999.90;;;;;;;3.99;74.01;99195.94;15748828;28;20044;-64
2021/01/23 20:51:15;;;;;;;1999.90;999.90;;;;;;;3.98;73.36;99194.31;15751504;28;20063;-63
2021/01/23 20:58:48;;;;;;;1999.90;999.90;;;;;;;4.22;72.74;99190.22;15751541;28;20436;-64
2021/01/23 21:06:19;;;;;;;1999.90;999.90;;;;;;;4.02;72.90;99181.47;15755754;28;20135;-64
2021/01/23 21:13:52;;;;;;;1999.90;999.90;;;;;;;3.85;73.17;99177.91;15759499;28;20143;-63
2021/01/23 21:21:24;;;;;;;1999.90;999.90;;;;;;;3.71;73.57;99178.91;15747520;28;20040;-64
2021/01/23 21:28:57;;;;;;;1999.90;999.90;;;;;;;3.76;73.28;99186.22;15745133;28;20048;-63
2021/01/23 21:36:29;;;;;;;1999.90;999.90;;;;;;;3.52;74.39;99186.69;15735810;28;20083;-62
2021/01/23 21:44:01;;;;;;;1999.90;999.90;;;;;;;3.70;73.65;99190.25;15746320;28;20064;-62
2021/01/23 21:51:33;;;;;;;1999.90;999.90;;;;;;;3.23;75.37;99186.47;15734279;28;20041;-56
2021/01/23 21:59:06;;;;;;;1999.90;999.90;;;;;;;3.23;75.88;99179.03;15744940;28;20103;-65
2021/01/23 22:06:37;;;;;;;1999.90;999.90;;;;;;;3.46;74.22;99188.00;15751625;28;20059;-65
2021/01/23 22:14:10;;;;;;;1999.90;999.90;;;;;;;3.36;74.86;99180.03;15746433;28;20059;-65
2021/01/23 22:21:42;;;;;;;1999.90;999.90;;;;;;;3.45;74.50;99183.63;15763850;22;20063;-59
2021/01/23 22:29:17;;;;;;;1999.90;999.90;;;;;;;3.55;73.72;99182.50;15803648;28;20084;-66
2021/01/23 22:36:48;;;;;;;1999.90;999.90;;;;;;;3.62;72.72;99172.56;15721178;28;20057;-62
2021/01/23 22:44:21;;;;;;;1999.90;999.90;;;;;;;3.54;73.46;99173.38;15740160;28;20280;-56
2021/01/23 22:51:53;;;;;;;1999.90;999.90;;;;;;;3.53;73.37;99159.91;15739895;28;20130;-61
2021/01/23 22:59:25;;;;;;;1999.90;999.90;;;;;;;3.40;73.56;99167.22;15704664;28;20143;-62
2021/01/23 23:06:57;;;;;;;1999.90;999.90;;;;;;;3.16;74.67;99162.97;15738517;28;20087;-62
2021/01/23 23:14:29;;;;;;;1999.90;999.90;;;;;;;3.59;72.95;99175.19;15739125;28;20048;-63
2021/01/23 23:22:01;;;;;;;1999.90;999.90;;;;;;;3.69;72.28;99166.59;15739738;28;20052;-63
2021/01/23 23:29:34;;;;;;;1999.90;999.90;;;;;;;3.70;72.46;99171.75;15735925;28;20045;-60
2021/01/23 23:37:05;;;;;;;1999.90;999.90;;;;;;;3.61;72.02;99161.88;15747521;28;20408;-61
2021/01/23 23:44:38;;;;;;;1999.90;999.90;;;;;;;3.67;72.55;99155.88;15732119;28;20509;-58
2021/01/23 23:52:09;;;;;;;1999.90;999.90;;;;;;;3.75;72.34;99163.34;15749867;28;20044;-61
2021/01/23 23:59:42;;;;;;;1999.90;999.90;;;;;;;3.70;71.83;99163.50;15731349;28;20125;-62
